createdAt,value
2024-04-16T00:00:01.967Z,95.61
2024-04-16T00:05:02.377Z,95.65
2024-04-16T00:10:02.469Z,95.25
2024-04-16T00:15:01.647Z,95.63
2024-04-16T00:20:01.965Z,95.58
2024-04-16T00:25:01.994Z,95.38
2024-04-16T00:30:01.355Z,95.12
2024-04-16T00:35:01.457Z,94
2024-04-16T00:40:01.589Z,94.64
2024-04-16T00:45:01.635Z,93.91
2024-04-16T00:50:02.106Z,93.3
2024-04-16T00:55:01.710Z,94.03
2024-04-16T01:00:01.640Z,93.32
2024-04-16T01:05:01.773Z,94.22
2024-04-16T01:10:01.935Z,93.64
2024-04-16T01:15:02.085Z,93.86
2024-04-16T01:20:01.880Z,93.22
2024-04-16T01:25:01.957Z,92.47
2024-04-16T01:30:01.604Z,92.93
2024-04-16T01:35:01.750Z,93.61
2024-04-16T01:40:02.347Z,94.32
2024-04-16T01:45:02.151Z,93.41
2024-04-16T01:50:02.329Z,94.55
2024-04-16T01:55:01.650Z,94.47
2024-04-16T02:00:01.652Z,94.54
2024-04-16T02:05:02.007Z,94.52
2024-04-16T02:10:02.025Z,94.42
2024-04-16T02:15:01.990Z,94.69
2024-04-16T02:20:01.578Z,94.25
2024-04-16T02:25:01.813Z,95.01
2024-04-16T02:30:02.146Z,93.81
2024-04-16T02:35:01.720Z,93.62
2024-04-16T02:40:01.833Z,93.22
2024-04-16T02:45:02.144Z,92.64
2024-04-16T02:50:01.759Z,92.85
2024-04-16T02:55:01.366Z,93.03
2024-04-16T03:00:01.761Z,93.03
2024-04-16T03:05:01.421Z,92.83
2024-04-16T03:10:02.102Z,93.22
2024-04-16T03:15:01.450Z,92.84
2024-04-16T03:20:02.254Z,93.4
2024-04-16T03:25:01.736Z,93.47
2024-04-16T03:30:02.354Z,93.51
2024-04-16T03:35:01.787Z,93.38
2024-04-16T03:40:02.186Z,93.91
2024-04-16T03:45:01.632Z,93.05
2024-04-16T03:50:02.307Z,92.87
2024-04-16T03:55:01.985Z,93.48
2024-04-16T04:00:01.392Z,94.12
2024-04-16T04:05:02.047Z,94.12
2024-04-16T04:10:01.457Z,94.15
2024-04-16T04:15:01.916Z,93.83
2024-04-16T04:20:01.964Z,93.89
2024-04-16T04:25:01.350Z,94.23
2024-04-16T04:30:01.308Z,95.56
2024-04-16T04:35:01.662Z,96.55
2024-04-16T04:40:02.340Z,96.95
2024-04-16T04:45:01.834Z,96.34
2024-04-16T04:50:01.831Z,95.7
2024-04-16T04:55:02.063Z,96.18
2024-04-16T05:00:01.231Z,96.8
2024-04-16T05:05:01.474Z,97.05
2024-04-16T05:10:02.049Z,97.01
2024-04-16T05:15:01.543Z,97.25
2024-04-16T05:20:01.863Z,96.9
2024-04-16T05:25:02.267Z,96.88
2024-04-16T05:30:01.473Z,96.41
2024-04-16T05:35:01.594Z,96.41
2024-04-16T05:40:01.627Z,96.41
2024-04-16T05:50:01.254Z,96.14
2024-04-16T05:55:01.498Z,94.96
2024-04-16T06:00:04.623Z,95.22
2024-04-16T06:05:01.350Z,95.2
2024-04-16T06:10:01.906Z,94.44
2024-04-16T06:15:01.384Z,93.91
2024-04-16T06:20:01.314Z,93.94
2024-04-16T06:25:01.660Z,94.62
2024-04-16T06:30:01.764Z,94.41
2024-04-16T06:35:01.922Z,94.5
2024-04-16T06:40:02.139Z,94.98
2024-04-16T06:45:01.640Z,94.73
2024-04-16T06:50:01.894Z,94.17
2024-04-16T06:55:01.329Z,94.86
2024-04-16T07:00:01.341Z,94.32
2024-04-16T07:05:01.841Z,94.65
2024-04-16T07:10:02.099Z,95.76
2024-04-16T07:15:01.989Z,98.05
2024-04-16T07:20:01.551Z,98.43
2024-04-16T07:25:01.489Z,98.37
2024-04-16T07:30:01.644Z,96.58
2024-04-16T07:35:02.148Z,96.58
2024-04-16T07:40:01.358Z,98.35
2024-04-16T07:45:01.417Z,98.84
2024-04-16T07:50:01.776Z,98.37
2024-04-16T07:55:02.133Z,98.37
2024-04-16T08:00:01.229Z,98.37
2024-04-16T08:05:01.524Z,99.01
2024-04-16T08:10:01.519Z,99.05
2024-04-16T08:15:01.526Z,99.04
2024-04-16T08:20:02.040Z,99.24
2024-04-16T08:25:02.204Z,99.15
2024-04-16T08:30:01.381Z,99.17
2024-04-16T08:35:01.754Z,99.26
2024-04-16T08:40:01.780Z,99.09
2024-04-16T08:45:01.887Z,99.4
2024-04-16T08:50:01.501Z,99.32
2024-04-16T08:55:01.410Z,99.88
2024-04-16T09:00:01.490Z,99.69
2024-04-16T09:05:02.224Z,99.59
2024-04-16T09:10:02.170Z,99.92
2024-04-16T09:15:02.196Z,100.14
2024-04-16T09:20:01.693Z,100.14
2024-04-16T09:25:01.673Z,100.23
2024-04-16T09:30:01.955Z,100.52
2024-04-16T09:35:02.136Z,100.87
2024-04-16T09:40:01.405Z,101.19
2024-04-16T09:45:01.473Z,100.69
2024-04-16T09:50:12.010Z,100.81
2024-04-16T09:55:01.875Z,100.8
2024-04-16T10:00:02.299Z,100.49
2024-04-16T10:05:02.045Z,100.36
2024-04-16T10:10:02.091Z,99.69
2024-04-16T10:15:02.299Z,100.05
2024-04-16T10:20:01.930Z,99.93
2024-04-16T10:25:02.226Z,99.93
2024-04-16T10:30:01.493Z,100.19
2024-04-16T10:35:01.809Z,100.25
2024-04-16T10:40:02.093Z,99.63
2024-04-16T10:45:01.610Z,100.01
2024-04-16T10:50:01.376Z,100.06
2024-04-16T10:55:01.404Z,100.49
2024-04-16T11:00:09.130Z,99.21
2024-04-16T11:05:02.403Z,98.25
2024-04-16T11:10:01.262Z,97.95
2024-04-16T11:15:01.553Z,95.31
2024-04-16T11:20:01.756Z,94.55
2024-04-16T11:25:01.820Z,96.15
2024-04-16T11:30:01.378Z,96.12
2024-04-16T11:35:01.870Z,97.44
2024-04-16T11:40:01.844Z,97.07
2024-04-16T11:45:02.083Z,97.07
2024-04-16T11:50:02.380Z,93.9
2024-04-16T11:55:01.247Z,93.28
2024-04-16T12:00:01.284Z,94.17
2024-04-16T12:05:01.711Z,93.52
2024-04-16T12:10:01.736Z,93.54
2024-04-16T12:15:01.252Z,93.54
2024-04-16T12:20:02.033Z,92.98
2024-04-16T12:25:01.290Z,93.26
2024-04-16T12:30:01.390Z,92.99
2024-04-16T12:35:01.673Z,95.69
2024-04-16T12:40:01.728Z,98.3
2024-04-16T12:45:01.758Z,96.93
2024-04-16T12:50:01.255Z,97.53
2024-04-16T12:55:01.367Z,97.65
2024-04-16T13:00:01.384Z,97.38
2024-04-16T13:05:01.829Z,96.04
2024-04-16T13:10:01.856Z,98.14
2024-04-16T13:15:02.014Z,98.57
2024-04-16T13:20:01.640Z,98.23
2024-04-16T13:25:01.833Z,97.09
2024-04-16T13:30:01.851Z,97.47
2024-04-16T13:35:01.683Z,97.45
2024-04-16T13:40:01.533Z,98.28
2024-04-16T13:45:01.875Z,98.33
2024-04-16T13:50:01.427Z,95.28
2024-04-16T13:55:01.469Z,98.21
2024-04-16T14:00:01.507Z,97.04
2024-04-16T14:05:02.094Z,97.39
2024-04-16T14:10:02.235Z,97.02
2024-04-16T14:15:02.157Z,96.87
2024-04-16T14:20:01.678Z,96.76
2024-04-16T14:25:02.053Z,96.12
2024-04-16T14:30:02.224Z,95.32
2024-04-16T14:35:01.616Z,94.86
2024-04-16T14:40:01.819Z,95.21
2024-04-16T14:45:01.937Z,95.21
2024-04-16T14:50:01.633Z,94.98
2024-04-16T14:55:01.580Z,94.9
2024-04-16T15:00:01.753Z,95.39
2024-04-16T15:05:02.148Z,96.66
2024-04-16T15:10:02.219Z,99.3
2024-04-16T15:15:02.383Z,99.46
2024-04-16T15:20:01.493Z,100.52
2024-04-16T15:25:01.582Z,98.9
2024-04-16T15:30:01.994Z,99.44
2024-04-16T15:35:01.524Z,100.12
2024-04-16T15:40:06.790Z,100.44
2024-04-16T15:45:01.517Z,99.9
2024-04-16T15:50:02.006Z,99.66
2024-04-16T15:55:01.956Z,99.68
2024-04-16T16:00:01.888Z,99.95
2024-04-16T16:05:02.123Z,100.1
2024-04-16T16:10:01.587Z,100.14
2024-04-16T16:15:01.517Z,100.19
2024-04-16T16:20:01.592Z,100.15
2024-04-16T16:25:01.665Z,100.39
2024-04-16T16:30:01.832Z,100.48
2024-04-16T16:35:01.929Z,100.66
2024-04-16T16:40:02.019Z,100.47
2024-04-16T16:45:05.215Z,100.47
2024-04-16T16:50:01.812Z,100.7
2024-04-16T16:55:02.004Z,100.59
2024-04-16T17:00:02.199Z,100.5
2024-04-16T17:05:01.286Z,100.12
2024-04-16T17:10:01.461Z,100.38
2024-04-16T17:15:01.546Z,100.38
2024-04-16T17:20:01.749Z,100.95
2024-04-16T17:25:01.646Z,101.11
2024-04-16T17:30:01.760Z,101.85
2024-04-16T17:35:01.869Z,102.03
2024-04-16T17:40:01.887Z,101.92
2024-04-16T17:45:01.785Z,101.9
2024-04-16T17:50:01.744Z,101.81
2024-04-16T17:55:01.736Z,101.83
2024-04-16T18:00:01.697Z,101.51
2024-04-16T18:05:01.897Z,101.09
2024-04-16T18:10:01.722Z,101.2
2024-04-16T18:15:01.908Z,101.18
2024-04-16T18:20:02.040Z,101.35
2024-04-16T18:25:01.879Z,101.27
2024-04-16T18:30:02.273Z,101.32
2024-04-16T18:35:01.277Z,101.2
2024-04-16T18:40:01.258Z,101.15
2024-04-16T18:45:01.412Z,101.15
2024-04-16T18:50:01.671Z,101.08
2024-04-16T18:55:01.561Z,101.46
2024-04-16T19:00:01.636Z,101.32
2024-04-16T19:05:01.712Z,101.33
2024-04-16T19:10:01.754Z,101.34
2024-04-16T19:15:01.713Z,101.34
2024-04-16T19:20:01.812Z,101.38
2024-04-16T19:25:01.895Z,101.62
2024-04-16T19:30:02.122Z,102.04
2024-04-16T19:35:02.164Z,102
2024-04-16T19:40:02.158Z,102.04
2024-04-16T19:45:02.097Z,101.89
2024-04-16T19:50:02.003Z,101.89
2024-04-16T19:55:01.931Z,102.09
2024-04-16T20:00:02.123Z,102.09
2024-04-16T20:10:01.320Z,101.78
2024-04-16T20:15:02.259Z,102.01
2024-04-16T20:20:01.382Z,102.07
2024-04-16T20:25:01.401Z,102.19
2024-04-16T20:30:01.541Z,102.3
2024-04-16T20:35:01.474Z,102.49
2024-04-16T20:40:01.516Z,102.19
2024-04-16T20:45:01.549Z,102.19
2024-04-16T20:50:01.720Z,102.19
2024-04-16T20:55:01.689Z,102.07
2024-04-16T21:00:01.764Z,102.02
2024-04-16T21:05:01.775Z,102.05
2024-04-16T21:10:01.739Z,102.01
2024-04-16T21:15:01.678Z,102.17
2024-04-16T21:20:01.862Z,102.07
2024-04-16T21:25:01.832Z,101.98
2024-04-16T21:30:01.817Z,102.16
2024-04-16T21:35:01.889Z,102.55
2024-04-16T21:40:02.008Z,102.39
2024-04-16T21:45:01.925Z,102.55
2024-04-16T21:50:01.912Z,102.65
2024-04-16T21:55:02.139Z,102.77
2024-04-16T22:00:02.343Z,102.88
2024-04-16T22:05:01.544Z,103.1
2024-04-16T22:10:01.362Z,102.95
2024-04-16T22:15:01.326Z,102.93
2024-04-16T22:20:01.380Z,102.9
2024-04-16T22:25:01.570Z,102.83
2024-04-16T22:30:01.904Z,102.86
2024-04-16T22:35:01.787Z,102.81
2024-04-16T22:40:01.795Z,102.64
2024-04-16T22:45:02.084Z,102.72
2024-04-16T22:50:01.987Z,102.74
2024-04-16T22:55:01.464Z,102.8
2024-04-16T23:00:01.670Z,102.81
2024-04-16T23:05:01.867Z,102.72
2024-04-16T23:10:01.871Z,102.84
2024-04-16T23:15:01.779Z,102.71
2024-04-16T23:20:01.397Z,102.76
2024-04-16T23:25:02.245Z,102.79
2024-04-16T23:30:01.335Z,102.89
2024-04-16T23:35:01.282Z,102.85
2024-04-16T23:40:01.223Z,102.91
2024-04-16T23:45:01.259Z,102.88
2024-04-16T23:50:01.397Z,102.92
2024-04-16T23:55:02.257Z,102.77
